Time;durP1;ratioP1;P1;durP2;ratioP2;P2;SDS_P1;SDS_P2;PMS_P1;PMS_P2;Temp;Humidity;BMP_temperature;BMP_pressure;BME280_temperature;BME280_humidity;BME280_pressure;Samples;Min_cycle;Max_cycle;Signal;HPM_P1;HPM_P2
2023/06/16 00:01:05;;;;;;;6.57;4.10;;;;;;;;;;5008873;28;20417;-48
2023/06/16 00:03:35;;;;;;;6.33;4.00;;;;;;;;;;5001101;28;20955;-47
2023/06/16 00:06:13;;;;;;;5.87;4.50;;;;;;;;;;4999918;28;20464;-47
2023/06/16 00:08:54;;;;;;;5.23;4.67;;;;;;;;;;5001840;28;21064;-51
2023/06/16 00:11:20;;;;;;;5.17;3.90;;;;;;;;;;5002480;28;20801;-49
2023/06/16 00:13:47;;;;;;;5.63;4.23;;;;;;;;;;4999231;28;20957;-50
2023/06/16 00:16:13;;;;;;;6.10;4.37;;;;;;;;;;5004192;28;20425;-48
2023/06/16 00:18:43;;;;;;;5.33;4.20;;;;;;;;;;5004179;28;20412;-49
2023/06/16 00:21:09;;;;;;;5.73;4.60;;;;;;;;;;4993755;28;20392;-49
2023/06/16 00:23:35;;;;;;;6.13;4.33;;;;;;;;;;5000252;28;20432;-49
2023/06/16 00:26:01;;;;;;;7.87;4.40;;;;;;;;;;5003398;28;20433;-49
2023/06/16 00:28:27;;;;;;;4.50;4.10;;;;;;;;;;5000579;28;20416;-48
2023/06/16 00:30:53;;;;;;;4.70;4.30;;;;;;;;;;5001567;28;20413;-49
2023/06/16 00:33:20;;;;;;;5.37;3.90;;;;;;;;;;4998990;28;20406;-51
2023/06/16 00:35:46;;;;;;;4.87;4.07;;;;;;;;;;5002895;28;20447;-51
2023/06/16 00:38:12;;;;;;;4.73;4.33;;;;;;;;;;4988303;28;20444;-52
2023/06/16 00:40:38;;;;;;;8.13;4.20;;;;;;;;;;4992196;28;20420;-48
2023/06/16 00:43:05;;;;;;;4.30;3.97;;;;;;;;;;5001920;28;20507;-48
2023/06/16 00:45:31;;;;;;;4.10;3.73;;;;;;;;;;5004687;28;20458;-50
2023/06/16 00:47:58;;;;;;;5.23;4.30;;;;;;;;;;5002447;28;20921;-50
2023/06/16 00:50:24;;;;;;;5.50;4.60;;;;;;;;;;5000677;28;20424;-47
2023/06/16 00:52:50;;;;;;;4.80;4.40;;;;;;;;;;5001876;28;20417;-48
2023/06/16 00:55:17;;;;;;;4.77;4.07;;;;;;;;;;5000093;28;20987;-48
2023/06/16 00:57:43;;;;;;;6.90;4.53;;;;;;;;;;5006803;28;20413;-51
2023/06/16 01:00:11;;;;;;;4.80;4.30;;;;;;;;;;5000904;28;20479;-50
2023/06/16 01:02:38;;;;;;;5.00;4.50;;;;;;;;;;4996203;28;20416;-49
2023/06/16 01:05:07;;;;;;;5.87;4.00;;;;;;;;;;4990409;28;20464;-48
2023/06/16 01:07:40;;;;;;;6.00;3.83;;;;;;;;;;4991654;28;20551;-49
2023/06/16 01:10:14;;;;;;;4.43;4.03;;;;;;;;;;4991450;28;20790;-48
2023/06/16 01:12:49;;;;;;;4.13;3.83;;;;;;;;;;4992117;28;20511;-47
2023/06/16 01:15:17;;;;;;;7.70;5.10;;;;;;;;;;4992057;28;20435;-49
2023/06/16 01:17:46;;;;;;;5.97;4.20;;;;;;;;;;4992065;28;20638;-48
2023/06/16 01:20:12;;;;;;;9.03;4.47;;;;;;;;;;4991873;28;20435;-47
2023/06/16 01:22:58;;;;;;;5.90;4.57;;;;;;;;;;4992068;28;20420;-49
2023/06/16 01:25:28;;;;;;;4.63;4.23;;;;;;;;;;4991800;28;20472;-48
2023/06/16 01:27:55;;;;;;;5.93;3.90;;;;;;;;;;4992017;28;20408;-49
2023/06/16 01:30:22;;;;;;;7.50;4.60;;;;;;;;;;4991676;28;20409;-47
2023/06/16 01:32:54;;;;;;;3.60;3.40;;;;;;;;;;4993515;28;20423;-49
2023/06/16 01:35:21;;;;;;;5.53;4.10;;;;;;;;;;4995305;28;20511;-48
2023/06/16 01:37:48;;;;;;;9.70;4.10;;;;;;;;;;4981546;28;20392;-49
2023/06/16 01:40:14;;;;;;;7.27;4.30;;;;;;;;;;4987309;28;20490;-49
2023/06/16 01:42:40;;;;;;;4.63;4.23;;;;;;;;;;4995499;28;20415;-48
2023/06/16 01:45:07;;;;;;;4.40;4.00;;;;;;;;;;4995228;28;20987;-47
2023/06/16 01:47:34;;;;;;;6.40;4.27;;;;;;;;;;4995616;28;20492;-47
2023/06/16 01:50:00;;;;;;;6.20;3.80;;;;;;;;;;4995382;28;20409;-47
2023/06/16 01:52:26;;;;;;;5.27;4.30;;;;;;;;;;4995557;28;20417;-48
2023/06/16 01:54:52;;;;;;;5.60;4.30;;;;;;;;;;4995269;28;20954;-47
2023/06/16 01:57:18;;;;;;;7.20;4.90;;;;;;;;;;4997831;28;20408;-48
2023/06/16 01:59:45;;;;;;;4.73;4.10;;;;;;;;;;4995393;28;20447;-50
2023/06/16 02:02:15;;;;;;;6.60;4.50;;;;;;;;;;4994627;28;20512;-48
2023/06/16 02:04:44;;;;;;;4.17;3.77;;;;;;;;;;4986473;28;20443;-50
2023/06/16 02:07:15;;;;;;;4.20;3.80;;;;;;;;;;5004147;28;20483;-47
2023/06/16 02:09:42;;;;;;;5.23;4.37;;;;;;;;;;5003107;28;20486;-49
2023/06/16 02:12:11;;;;;;;5.13;4.57;;;;;;;;;;5006607;28;20400;-48
2023/06/16 02:14:38;;;;;;;6.63;3.90;;;;;;;;;;5007506;28;20454;-48
2023/06/16 02:17:09;;;;;;;7.00;4.40;;;;;;;;;;5003025;28;20416;-47
2023/06/16 02:19:38;;;;;;;5.60;4.50;;;;;;;;;;5005938;28;20407;-47
2023/06/16 02:22:04;;;;;;;7.43;4.33;;;;;;;;;;4999821;28;20408;-49
2023/06/16 02:24:31;;;;;;;4.40;4.00;;;;;;;;;;5006100;28;20546;-49
2023/06/16 02:26:56;;;;;;;6.33;4.63;;;;;;;;;;5004465;28;20521;-47
2023/06/16 02:29:22;;;;;;;6.73;3.97;;;;;;;;;;5004970;28;20415;-47
2023/06/16 02:31:49;;;;;;;4.10;3.63;;;;;;;;;;5004389;28;20393;-50
2023/06/16 02:34:16;;;;;;;5.60;4.70;;;;;;;;;;5004682;28;20443;-49
2023/06/16 02:36:42;;;;;;;6.60;5.07;;;;;;;;;;5004168;28;20423;-48
2023/06/16 02:39:08;;;;;;;4.83;4.30;;;;;;;;;;4998101;28;20453;-48
2023/06/16 02:41:34;;;;;;;8.53;5.40;;;;;;;;;;5006007;28;20451;-49
2023/06/16 02:44:00;;;;;;;5.80;4.23;;;;;;;;;;4997791;28;20463;-48
2023/06/16 02:46:26;;;;;;;5.70;5.10;;;;;;;;;;5002487;28;20599;-47
2023/06/16 02:48:52;;;;;;;7.97;6.03;;;;;;;;;;5000247;28;20473;-52
2023/06/16 02:51:18;;;;;;;6.70;5.40;;;;;;;;;;4991751;28;20417;-47
2023/06/16 02:53:47;;;;;;;5.03;4.00;;;;;;;;;;5002118;28;20405;-49
2023/06/16 02:56:14;;;;;;;5.40;4.63;;;;;;;;;;5006805;28;20442;-48
2023/06/16 02:58:40;;;;;;;7.20;4.80;;;;;;;;;;5005620;28;20934;-50
2023/06/16 03:01:06;;;;;;;6.07;5.47;;;;;;;;;;5000125;28;20388;-48
2023/06/16 03:03:34;;;;;;;5.87;5.30;;;;;;;;;;4999779;28;20394;-48
2023/06/16 03:06:00;;;;;;;7.70;6.30;;;;;;;;;;5004825;28;20985;-47
2023/06/16 03:08:27;;;;;;;8.50;6.30;;;;;;;;;;5005191;28;20901;-49
2023/06/16 03:10:53;;;;;;;7.27;5.10;;;;;;;;;;5003706;28;20420;-48
2023/06/16 03:13:19;;;;;;;6.83;5.63;;;;;;;;;;5004724;28;20419;-49
2023/06/16 03:15:45;;;;;;;6.13;5.53;;;;;;;;;;5003997;28;20461;-47
2023/06/16 03:18:11;;;;;;;6.13;5.63;;;;;;;;;;4999675;28;20394;-47
2023/06/16 03:20:40;;;;;;;10.60;5.80;;;;;;;;;;5005029;28;20390;-48
2023/06/16 03:23:06;;;;;;;7.03;6.33;;;;;;;;;;4996056;28;21143;-48
2023/06/16 03:25:32;;;;;;;9.93;5.67;;;;;;;;;;5002397;28;20448;-48
2023/06/16 03:27:58;;;;;;;9.53;5.83;;;;;;;;;;5004392;28;20479;-49
2023/06/16 03:30:24;;;;;;;6.90;6.20;;;;;;;;;;5001894;28;20960;-51
2023/06/16 03:32:50;;;;;;;11.47;6.10;;;;;;;;;;5003121;28;20497;-47
2023/06/16 03:35:17;;;;;;;8.97;6.70;;;;;;;;;;5001463;28;20524;-49
2023/06/16 03:37:43;;;;;;;9.00;6.43;;;;;;;;;;5007930;28;20406;-48
2023/06/16 03:40:09;;;;;;;12.43;6.90;;;;;;;;;;5002242;28;20466;-51
2023/06/16 03:42:36;;;;;;;9.20;6.53;;;;;;;;;;5000406;28;20425;-50
2023/06/16 03:45:06;;;;;;;9.97;6.77;;;;;;;;;;5007278;28;20456;-49
2023/06/16 03:47:32;;;;;;;14.33;6.63;;;;;;;;;;5001539;28;20427;-48
2023/06/16 03:49:59;;;;;;;10.30;6.63;;;;;;;;;;5001036;28;20390;-49
2023/06/16 03:52:25;;;;;;;10.00;6.50;;;;;;;;;;5001441;28;20455;-48
2023/06/16 03:54:51;;;;;;;10.17;6.70;;;;;;;;;;5005772;28;20407;-47
2023/06/16 03:57:18;;;;;;;12.00;6.90;;;;;;;;;;5001580;28;20427;-47
2023/06/16 03:59:44;;;;;;;8.10;7.30;;;;;;;;;;4997867;28;20404;-48
2023/06/16 04:02:10;;;;;;;9.07;6.70;;;;;;;;;;5000565;28;20388;-48
2023/06/16 04:04:36;;;;;;;8.83;6.07;;;;;;;;;;5000774;28;20947;-49
2023/06/16 04:07:05;;;;;;;8.70;6.40;;;;;;;;;;5004152;28;20433;-47
2023/06/16 04:09:31;;;;;;;7.47;6.13;;;;;;;;;;5002015;28;20785;-48
2023/06/16 04:11:57;;;;;;;7.20;5.73;;;;;;;;;;5004278;28;20397;-48
2023/06/16 04:14:23;;;;;;;10.60;6.47;;;;;;;;;;4994319;28;20419;-47
2023/06/16 04:16:50;;;;;;;10.83;7.33;;;;;;;;;;5001497;28;20403;-47
2023/06/16 04:19:19;;;;;;;7.90;7.10;;;;;;;;;;5003905;28;20515;-47
2023/06/16 04:21:45;;;;;;;6.87;6.27;;;;;;;;;;5001087;28;20440;-49
2023/06/16 04:24:11;;;;;;;8.23;6.07;;;;;;;;;;5002934;28;20443;-48
2023/06/16 04:26:37;;;;;;;7.87;6.30;;;;;;;;;;5000764;28;20465;-47
2023/06/16 04:29:04;;;;;;;9.33;6.60;;;;;;;;;;5000700;28;20426;-47
2023/06/16 04:31:35;;;;;;;7.27;6.47;;;;;;;;;;4999583;28;20415;-47
2023/06/16 04:34:03;;;;;;;8.60;6.93;;;;;;;;;;5001047;28;20415;-47
2023/06/16 04:36:29;;;;;;;10.73;7.43;;;;;;;;;;5004307;28;20778;-47
2023/06/16 04:38:56;;;;;;;15.03;8.00;;;;;;;;;;4999118;28;20930;-51
2023/06/16 04:41:22;;;;;;;8.07;6.97;;;;;;;;;;4999710;28;20398;-48
2023/06/16 04:43:48;;;;;;;10.30;7.60;;;;;;;;;;5000669;28;20416;-48
2023/06/16 04:46:14;;;;;;;11.33;7.10;;;;;;;;;;4998422;28;20459;-48
2023/06/16 04:48:40;;;;;;;10.23;7.33;;;;;;;;;;5000536;28;20390;-51
2023/06/16 04:51:06;;;;;;;9.10;6.80;;;;;;;;;;5005052;28;20421;-47
2023/06/16 04:53:32;;;;;;;13.50;6.80;;;;;;;;;;5002816;28;20403;-47
2023/06/16 04:55:58;;;;;;;10.17;6.40;;;;;;;;;;4997443;28;20407;-49
2023/06/16 04:58:24;;;;;;;8.10;6.10;;;;;;;;;;4997947;28;20395;-47
2023/06/16 05:00:50;;;;;;;8.07;6.00;;;;;;;;;;5001373;28;20404;-47
2023/06/16 05:03:16;;;;;;;8.43;6.67;;;;;;;;;;5003745;28;20412;-48
2023/06/16 05:05:43;;;;;;;11.60;6.73;;;;;;;;;;5000514;28;20471;-49
2023/06/16 05:08:09;;;;;;;8.70;6.47;;;;;;;;;;5005376;28;20382;-48
2023/06/16 05:10:35;;;;;;;10.13;7.30;;;;;;;;;;5005761;28;20849;-48
2023/06/16 05:13:01;;;;;;;8.20;6.53;;;;;;;;;;4999918;28;20425;-48
2023/06/16 05:15:27;;;;;;;11.40;7.10;;;;;;;;;;5000980;28;20481;-47
2023/06/16 05:17:53;;;;;;;7.70;6.90;;;;;;;;;;5006099;28;20462;-48
2023/06/16 05:20:19;;;;;;;10.97;6.57;;;;;;;;;;5005566;28;20884;-48
2023/06/16 05:22:45;;;;;;;10.63;6.87;;;;;;;;;;5004871;28;20414;-47
2023/06/16 05:25:11;;;;;;;10.70;6.53;;;;;;;;;;5004804;28;20485;-49
2023/06/16 05:27:37;;;;;;;11.90;7.40;;;;;;;;;;5004186;28;20418;-48
2023/06/16 05:30:03;;;;;;;7.43;6.20;;;;;;;;;;5004291;28;20414;-50
2023/06/16 05:32:29;;;;;;;10.93;6.50;;;;;;;;;;5007913;28;20754;-49
2023/06/16 05:34:56;;;;;;;9.60;7.07;;;;;;;;;;5002646;28;20434;-49
2023/06/16 05:37:22;;;;;;;8.57;6.43;;;;;;;;;;5003599;28;20397;-51
2023/06/16 05:39:49;;;;;;;8.03;6.87;;;;;;;;;;5004000;28;20405;-50
2023/06/16 05:42:15;;;;;;;11.30;7.10;;;;;;;;;;5003968;28;20407;-51
2023/06/16 05:44:42;;;;;;;7.40;6.07;;;;;;;;;;5003808;28;20414;-52
2023/06/16 05:47:08;;;;;;;6.43;5.83;;;;;;;;;;5003319;28;20472;-50
2023/06/16 05:49:34;;;;;;;10.57;5.97;;;;;;;;;;5006864;28;20395;-50
2023/06/16 05:52:03;;;;;;;13.23;6.10;;;;;;;;;;5000861;28;20406;-51
2023/06/16 05:54:29;;;;;;;13.40;7.80;;;;;;;;;;5000547;28;20432;-52
2023/06/16 05:56:56;;;;;;;9.63;7.00;;;;;;;;;;5005606;28;20402;-51
2023/06/16 05:59:22;;;;;;;7.70;6.07;;;;;;;;;;4997847;28;20441;-50
2023/06/16 06:01:51;;;;;;;7.60;6.47;;;;;;;;;;5004621;28;20394;-51
2023/06/16 06:04:20;;;;;;;8.23;6.70;;;;;;;;;;5005300;28;20498;-51
2023/06/16 06:06:46;;;;;;;7.33;6.47;;;;;;;;;;4988318;28;20463;-50
2023/06/16 06:09:12;;;;;;;10.40;7.00;;;;;;;;;;4999320;28;20426;-52
2023/06/16 06:11:39;;;;;;;8.20;6.57;;;;;;;;;;5006989;28;20421;-50
2023/06/16 06:14:05;;;;;;;8.83;7.07;;;;;;;;;;5001357;28;20492;-52
2023/06/16 06:16:31;;;;;;;7.13;6.43;;;;;;;;;;5005627;28;20435;-52
2023/06/16 06:18:57;;;;;;;11.60;5.80;;;;;;;;;;5004816;28;20437;-50
2023/06/16 06:21:23;;;;;;;8.50;6.63;;;;;;;;;;5006273;28;20414;-50
2023/06/16 06:23:49;;;;;;;12.93;6.63;;;;;;;;;;5002353;28;20440;-51
2023/06/16 06:26:15;;;;;;;8.80;6.80;;;;;;;;;;5005797;28;20934;-50
2023/06/16 06:28:41;;;;;;;7.80;5.10;;;;;;;;;;5006218;28;20468;-51
2023/06/16 06:31:07;;;;;;;6.97;5.67;;;;;;;;;;4999884;28;20387;-51
2023/06/16 06:33:33;;;;;;;9.10;5.50;;;;;;;;;;5006453;28;20909;-51
2023/06/16 06:35:59;;;;;;;10.03;6.57;;;;;;;;;;5004248;28;21461;-50
2023/06/16 06:38:25;;;;;;;8.33;5.77;;;;;;;;;;5004980;28;20902;-51
2023/06/16 06:40:51;;;;;;;8.37;6.17;;;;;;;;;;5004207;28;20409;-50
2023/06/16 06:43:17;;;;;;;7.40;5.50;;;;;;;;;;4999249;28;20493;-50
2023/06/16 06:45:45;;;;;;;8.40;6.00;;;;;;;;;;4996946;28;20473;-50
2023/06/16 06:48:11;;;;;;;8.13;6.17;;;;;;;;;;4993250;28;20426;-50
2023/06/16 06:50:37;;;;;;;7.27;5.60;;;;;;;;;;5001302;28;20400;-49
2023/06/16 06:53:03;;;;;;;8.73;5.40;;;;;;;;;;4999329;28;20394;-50
2023/06/16 06:55:29;;;;;;;10.63;5.27;;;;;;;;;;5002451;28;20453;-49
2023/06/16 06:57:55;;;;;;;6.90;5.30;;;;;;;;;;5002648;28;20760;-50
2023/06/16 07:00:21;;;;;;;5.80;5.20;;;;;;;;;;5007685;28;20466;-49
2023/06/16 07:02:47;;;;;;;6.40;5.30;;;;;;;;;;5005370;28;20928;-50
2023/06/16 07:05:13;;;;;;;6.00;5.40;;;;;;;;;;5007220;28;20477;-49
2023/06/16 07:07:39;;;;;;;5.47;4.90;;;;;;;;;;5006740;28;20421;-49
2023/06/16 07:10:05;;;;;;;5.47;4.97;;;;;;;;;;5000264;28;20410;-50
2023/06/16 07:12:31;;;;;;;5.70;4.43;;;;;;;;;;5000122;28;20786;-50
2023/06/16 07:14:57;;;;;;;5.27;4.37;;;;;;;;;;5004316;28;20421;-50
2023/06/16 07:17:23;;;;;;;6.70;5.27;;;;;;;;;;5004448;28;20445;-50
2023/06/16 07:19:49;;;;;;;9.30;4.90;;;;;;;;;;5003198;28;20424;-51
2023/06/16 07:22:16;;;;;;;5.47;4.80;;;;;;;;;;5005170;28;20919;-49
2023/06/16 07:24:42;;;;;;;8.10;5.20;;;;;;;;;;5004678;28;20452;-49
2023/06/16 07:27:09;;;;;;;7.80;4.93;;;;;;;;;;4999088;28;20517;-50
2023/06/16 07:29:35;;;;;;;4.90;4.40;;;;;;;;;;4997349;28;20945;-49
2023/06/16 07:32:01;;;;;;;5.80;4.70;;;;;;;;;;5004301;28;20422;-49
2023/06/16 07:34:27;;;;;;;5.80;4.67;;;;;;;;;;5003269;28;20430;-51
2023/06/16 07:36:53;;;;;;;4.47;4.07;;;;;;;;;;5003482;28;20779;-50
2023/06/16 07:39:21;;;;;;;5.23;4.73;;;;;;;;;;5002500;28;20911;-50
2023/06/16 07:41:47;;;;;;;4.17;3.87;;;;;;;;;;5003169;28;20441;-50
2023/06/16 07:44:13;;;;;;;3.90;3.60;;;;;;;;;;4997768;28;20775;-50
2023/06/16 07:46:40;;;;;;;5.10;4.53;;;;;;;;;;4999429;28;20463;-49
2023/06/16 07:49:06;;;;;;;6.50;4.47;;;;;;;;;;5001552;28;20407;-53
2023/06/16 07:51:32;;;;;;;6.20;4.53;;;;;;;;;;5000851;28;20978;-50
2023/06/16 07:53:58;;;;;;;4.37;3.97;;;;;;;;;;5002854;28;20428;-50
2023/06/16 07:56:24;;;;;;;5.43;4.07;;;;;;;;;;5001246;28;20820;-50
2023/06/16 07:58:50;;;;;;;3.63;3.33;;;;;;;;;;5008884;28;20791;-51
2023/06/16 08:01:16;;;;;;;5.30;3.90;;;;;;;;;;4998266;28;20909;-50
2023/06/16 08:03:46;;;;;;;4.80;3.80;;;;;;;;;;5002429;28;20511;-50
2023/06/16 08:06:12;;;;;;;4.20;3.80;;;;;;;;;;5002495;28;20521;-50
2023/06/16 08:08:38;;;;;;;4.33;3.80;;;;;;;;;;5000293;28;20423;-50
2023/06/16 08:11:06;;;;;;;3.80;3.30;;;;;;;;;;4991160;28;20950;-50
2023/06/16 08:13:32;;;;;;;5.67;4.13;;;;;;;;;;4999832;28;20416;-49
2023/06/16 08:15:58;;;;;;;6.33;4.80;;;;;;;;;;4998679;28;20487;-50
2023/06/16 08:18:24;;;;;;;3.70;3.40;;;;;;;;;;5004288;28;20416;-49
2023/06/16 08:20:51;;;;;;;5.33;3.77;;;;;;;;;;5000248;28;20418;-50
2023/06/16 08:23:17;;;;;;;6.77;4.10;;;;;;;;;;5002310;28;20688;-49
2023/06/16 08:25:43;;;;;;;3.80;3.50;;;;;;;;;;5001185;28;20600;-50
2023/06/16 08:28:09;;;;;;;12.37;3.80;;;;;;;;;;5005653;28;20472;-50
2023/06/16 08:30:36;;;;;;;6.70;3.83;;;;;;;;;;4991447;28;20423;-50
2023/06/16 08:33:04;;;;;;;4.33;3.77;;;;;;;;;;4998432;28;20734;-50
2023/06/16 08:35:30;;;;;;;3.47;3.27;;;;;;;;;;5003402;28;20434;-51
2023/06/16 08:37:56;;;;;;;4.47;3.73;;;;;;;;;;4998563;28;20447;-50
2023/06/16 08:40:22;;;;;;;4.40;3.70;;;;;;;;;;5002292;28;20497;-50
2023/06/16 08:42:48;;;;;;;5.57;3.90;;;;;;;;;;5003441;28;20424;-49
2023/06/16 08:45:14;;;;;;;3.33;3.13;;;;;;;;;;5001592;28;20474;-51
2023/06/16 08:47:42;;;;;;;4.40;3.60;;;;;;;;;;4999590;28;20420;-49
2023/06/16 08:50:09;;;;;;;9.07;3.27;;;;;;;;;;5000035;28;20515;-50
2023/06/16 08:52:37;;;;;;;3.67;3.30;;;;;;;;;;5000500;28;20466;-50
2023/06/16 08:55:04;;;;;;;3.60;3.30;;;;;;;;;;5002402;28;20463;-50
2023/06/16 08:57:31;;;;;;;6.43;3.43;;;;;;;;;;4999840;28;20465;-50
2023/06/16 08:59:57;;;;;;;4.57;3.50;;;;;;;;;;5001203;28;20411;-50
2023/06/16 09:02:23;;;;;;;3.83;3.17;;;;;;;;;;5003532;28;20446;-50
2023/06/16 09:04:50;;;;;;;3.57;3.30;;;;;;;;;;4999209;28;20940;-50
2023/06/16 09:07:19;;;;;;;3.73;3.30;;;;;;;;;;5000865;28;20498;-51
2023/06/16 09:09:45;;;;;;;4.67;3.37;;;;;;;;;;5000855;28;20931;-51
2023/06/16 09:12:12;;;;;;;3.70;3.03;;;;;;;;;;5000690;28;20396;-50
2023/06/16 09:14:48;;;;;;;3.10;2.90;;;;;;;;;;5000177;28;20471;-51
2023/06/16 09:17:14;;;;;;;3.87;3.50;;;;;;;;;;4992255;28;20443;-50
2023/06/16 09:19:51;;;;;;;7.80;3.30;;;;;;;;;;5003808;28;20417;-50
2023/06/16 09:22:26;;;;;;;3.30;3.07;;;;;;;;;;4999577;28;20775;-50
2023/06/16 09:24:58;;;;;;;7.43;3.10;;;;;;;;;;4995921;28;20447;-51
2023/06/16 09:27:28;;;;;;;3.77;3.10;;;;;;;;;;5003496;28;20426;-50
2023/06/16 09:29:58;;;;;;;4.00;3.13;;;;;;;;;;5000688;28;20400;-50
2023/06/16 09:32:25;;;;;;;3.53;3.23;;;;;;;;;;5001230;28;20430;-50
2023/06/16 09:34:51;;;;;;;3.07;2.87;;;;;;;;;;5001817;28;20830;-52
2023/06/16 09:37:20;;;;;;;3.07;2.87;;;;;;;;;;5000605;28;20782;-52
2023/06/16 09:39:46;;;;;;;3.03;2.70;;;;;;;;;;5000430;28;20542;-51
2023/06/16 09:42:13;;;;;;;4.10;3.80;;;;;;;;;;4999882;28;20405;-49
2023/06/16 09:44:41;;;;;;;5.07;3.80;;;;;;;;;;5005453;28;20435;-52
2023/06/16 09:47:07;;;;;;;3.73;3.43;;;;;;;;;;4996894;28;20454;-50
2023/06/16 09:49:33;;;;;;;3.47;3.27;;;;;;;;;;4995390;28;20424;-51
2023/06/16 09:51:59;;;;;;;6.90;3.87;;;;;;;;;;5000625;28;20412;-51
2023/06/16 09:54:26;;;;;;;4.03;3.73;;;;;;;;;;5002155;28;20947;-51
2023/06/16 09:56:56;;;;;;;5.27;3.70;;;;;;;;;;5005296;28;20420;-51
2023/06/16 09:59:23;;;;;;;4.47;3.40;;;;;;;;;;5006423;28;20448;-51
2023/06/16 10:01:50;;;;;;;4.10;3.77;;;;;;;;;;5007428;28;20461;-51
2023/06/16 10:04:17;;;;;;;4.03;3.40;;;;;;;;;;5003109;28;20439;-50
2023/06/16 10:06:56;;;;;;;4.27;3.37;;;;;;;;;;4999297;28;20467;-51
2023/06/16 10:09:28;;;;;;;4.27;3.97;;;;;;;;;;5006410;28;20427;-50
2023/06/16 10:11:56;;;;;;;3.70;3.40;;;;;;;;;;5004095;28;20824;-50
2023/06/16 10:14:26;;;;;;;3.60;3.30;;;;;;;;;;5004855;28;20518;-50
2023/06/16 10:16:54;;;;;;;3.40;3.10;;;;;;;;;;5005037;28;20412;-50
2023/06/16 10:19:22;;;;;;;3.87;3.57;;;;;;;;;;4989192;28;20805;-50
2023/06/16 10:21:50;;;;;;;4.07;3.67;;;;;;;;;;5005879;28;20431;-52
2023/06/16 10:24:16;;;;;;;4.63;3.80;;;;;;;;;;5002774;28;20585;-51
2023/06/16 10:26:42;;;;;;;3.73;3.43;;;;;;;;;;5008508;28;20473;-51
2023/06/16 10:29:08;;;;;;;3.97;3.67;;;;;;;;;;5001161;28;20416;-51
2023/06/16 10:31:36;;;;;;;9.57;3.40;;;;;;;;;;5001018;28;20501;-52
2023/06/16 10:34:02;;;;;;;4.50;3.57;;;;;;;;;;5003565;28;20442;-51
2023/06/16 10:36:36;;;;;;;3.80;3.50;;;;;;;;;;5002504;28;20411;-51
2023/06/16 10:39:08;;;;;;;3.70;3.40;;;;;;;;;;5005391;28;20911;-53
2023/06/16 10:41:34;;;;;;;3.53;3.23;;;;;;;;;;5004356;28;20418;-52
2023/06/16 10:44:19;;;;;;;4.00;3.70;;;;;;;;;;5006813;28;20464;-51
2023/06/16 10:46:45;;;;;;;5.43;4.77;;;;;;;;;;5005473;28;20455;-51
2023/06/16 10:49:11;;;;;;;3.40;3.20;;;;;;;;;;4997693;28;20435;-50
2023/06/16 10:51:41;;;;;;;4.23;3.40;;;;;;;;;;5005175;28;20437;-51
2023/06/16 10:54:08;;;;;;;4.17;3.87;;;;;;;;;;4996431;28;20800;-50
2023/06/16 10:56:53;;;;;;;4.07;3.60;;;;;;;;;;5002594;28;20416;-50
2023/06/16 10:59:19;;;;;;;4.20;3.70;;;;;;;;;;5007591;28;20554;-50
2023/06/16 11:01:46;;;;;;;5.90;3.80;;;;;;;;;;5003174;28;20416;-50
2023/06/16 11:04:14;;;;;;;3.73;3.43;;;;;;;;;;4995260;28;20431;-50
2023/06/16 11:06:59;;;;;;;4.00;3.70;;;;;;;;;;5001582;28;20464;-51
2023/06/16 11:09:29;;;;;;;6.27;4.00;;;;;;;;;;5005006;28;20427;-51
2023/06/16 11:11:58;;;;;;;3.43;3.13;;;;;;;;;;5006359;28;20411;-51
2023/06/16 11:14:24;;;;;;;4.00;3.30;;;;;;;;;;5002575;28;20521;-50
2023/06/16 11:16:54;;;;;;;3.60;3.40;;;;;;;;;;4998298;28;20440;-51
2023/06/16 11:19:20;;;;;;;6.07;4.00;;;;;;;;;;5008160;28;20454;-51
2023/06/16 11:21:47;;;;;;;4.70;4.20;;;;;;;;;;5003101;28;20427;-50
2023/06/16 11:24:13;;;;;;;4.83;3.60;;;;;;;;;;5004754;28;21050;-50
2023/06/16 11:26:40;;;;;;;5.27;3.93;;;;;;;;;;5001937;28;20456;-51
2023/06/16 11:29:07;;;;;;;5.40;3.83;;;;;;;;;;5004129;28;20408;-53
2023/06/16 11:31:35;;;;;;;3.50;3.20;;;;;;;;;;5002847;28;20411;-51
2023/06/16 11:34:01;;;;;;;7.73;3.80;;;;;;;;;;5002452;28;20498;-50
2023/06/16 11:36:27;;;;;;;6.87;3.27;;;;;;;;;;5006076;28;20415;-50
2023/06/16 11:38:57;;;;;;;5.30;4.03;;;;;;;;;;5001105;28;20912;-50
2023/06/16 11:41:25;;;;;;;4.03;3.50;;;;;;;;;;5001559;28;20466;-52
2023/06/16 11:43:51;;;;;;;6.60;3.97;;;;;;;;;;5002614;28;20424;-50
2023/06/16 11:46:20;;;;;;;4.70;3.80;;;;;;;;;;5001414;28;20478;-50
2023/06/16 11:48:48;;;;;;;3.90;3.70;;;;;;;;;;4992092;28;20435;-50
2023/06/16 11:51:14;;;;;;;3.63;3.30;;;;;;;;;;4996815;28;20426;-51
2023/06/16 11:53:42;;;;;;;4.10;3.83;;;;;;;;;;5005187;28;20755;-51
2023/06/16 11:56:09;;;;;;;4.50;4.10;;;;;;;;;;4999969;28;20881;-50
2023/06/16 11:58:35;;;;;;;3.83;3.53;;;;;;;;;;5005395;28;20542;-52
2023/06/16 12:01:02;;;;;;;4.10;3.70;;;;;;;;;;4992627;28;20416;-51
2023/06/16 12:03:32;;;;;;;4.50;3.73;;;;;;;;;;4992862;28;20462;-50
2023/06/16 12:05:58;;;;;;;3.97;3.70;;;;;;;;;;4992701;28;20463;-50
2023/06/16 12:08:37;;;;;;;3.43;3.23;;;;;;;;;;4993513;28;20412;-51
2023/06/16 12:11:03;;;;;;;3.90;3.30;;;;;;;;;;4991537;28;20435;-50
2023/06/16 12:13:34;;;;;;;4.63;4.33;;;;;;;;;;4992750;28;20415;-50
2023/06/16 12:16:08;;;;;;;3.73;3.43;;;;;;;;;;4992624;28;20448;-51
2023/06/16 12:18:34;;;;;;;3.93;3.73;;;;;;;;;;4990904;28;20428;-52
2023/06/16 12:21:20;;;;;;;7.30;4.37;;;;;;;;;;4992635;28;20479;-51
2023/06/16 12:23:57;;;;;;;4.10;3.80;;;;;;;;;;4992624;28;20442;-50
2023/06/16 12:26:30;;;;;;;7.03;4.83;;;;;;;;;;4992413;28;20467;-52
2023/06/16 12:28:57;;;;;;;4.23;3.80;;;;;;;;;;4992488;28;20404;-49
2023/06/16 12:31:26;;;;;;;5.90;3.83;;;;;;;;;;4992508;28;20423;-52
2023/06/16 12:33:53;;;;;;;6.30;4.00;;;;;;;;;;4986274;28;20525;-50
2023/06/16 12:36:19;;;;;;;4.37;4.07;;;;;;;;;;4992453;28;20904;-50
2023/06/16 12:38:46;;;;;;;4.67;4.27;;;;;;;;;;4992502;28;20455;-50
2023/06/16 12:41:12;;;;;;;4.93;4.43;;;;;;;;;;4989101;28;21018;-52
2023/06/16 12:43:45;;;;;;;4.97;4.03;;;;;;;;;;4990497;28;20423;-50
2023/06/16 12:46:11;;;;;;;5.07;3.77;;;;;;;;;;4991506;28;20518;-51
2023/06/16 12:48:37;;;;;;;5.13;4.60;;;;;;;;;;4991018;28;20420;-51
2023/06/16 12:51:03;;;;;;;4.33;3.73;;;;;;;;;;4992159;28;20415;-50
2023/06/16 12:53:29;;;;;;;4.40;4.00;;;;;;;;;;4992319;28;20886;-52
2023/06/16 12:55:55;;;;;;;7.40;3.93;;;;;;;;;;4992110;28;20424;-52
2023/06/16 12:58:21;;;;;;;3.67;3.40;;;;;;;;;;5003542;28;20434;-50
2023/06/16 13:00:47;;;;;;;3.87;3.57;;;;;;;;;;5000571;28;20420;-50
2023/06/16 13:03:13;;;;;;;5.23;4.10;;;;;;;;;;4992370;28;20208;-50
2023/06/16 13:05:42;;;;;;;4.20;3.90;;;;;;;;;;4992058;28;21038;-50
2023/06/16 13:08:08;;;;;;;3.57;3.30;;;;;;;;;;4992781;28;20405;-50
2023/06/16 13:10:34;;;;;;;3.90;3.60;;;;;;;;;;4999519;28;20419;-54
2023/06/16 13:13:00;;;;;;;3.80;3.60;;;;;;;;;;4998639;28;20431;-50
2023/06/16 13:15:26;;;;;;;6.50;3.80;;;;;;;;;;5003421;28;20208;-51
2023/06/16 13:17:52;;;;;;;4.23;3.80;;;;;;;;;;5004892;28;20415;-53
2023/06/16 13:20:18;;;;;;;4.10;3.80;;;;;;;;;;5000355;28;20434;-51
2023/06/16 13:22:44;;;;;;;4.87;3.60;;;;;;;;;;4996818;28;20189;-50
2023/06/16 13:25:10;;;;;;;4.27;3.40;;;;;;;;;;5003226;28;20207;-50
2023/06/16 13:27:36;;;;;;;5.07;3.57;;;;;;;;;;5002077;28;20910;-50
2023/06/16 13:30:02;;;;;;;5.13;3.97;;;;;;;;;;5006559;28;20191;-50
2023/06/16 13:32:28;;;;;;;6.13;4.10;;;;;;;;;;5005500;28;20911;-50
2023/06/16 13:34:54;;;;;;;4.43;4.03;;;;;;;;;;5006940;28;20429;-51
2023/06/16 13:37:20;;;;;;;5.53;3.67;;;;;;;;;;5002871;28;20184;-51
2023/06/16 13:39:46;;;;;;;3.87;3.57;;;;;;;;;;5005898;28;20791;-51
2023/06/16 13:42:12;;;;;;;5.50;4.03;;;;;;;;;;5001887;28;20427;-52
2023/06/16 13:44:38;;;;;;;4.20;3.90;;;;;;;;;;5003774;28;20626;-51
2023/06/16 13:47:05;;;;;;;3.80;3.50;;;;;;;;;;5003687;28;20455;-53
2023/06/16 13:49:31;;;;;;;4.40;4.00;;;;;;;;;;5003535;28;20507;-53
2023/06/16 13:51:57;;;;;;;3.73;3.43;;;;;;;;;;5005016;28;20487;-50
2023/06/16 13:54:22;;;;;;;7.03;4.17;;;;;;;;;;5003519;28;20509;-51
2023/06/16 13:56:50;;;;;;;5.00;4.40;;;;;;;;;;5010077;28;20415;-50
2023/06/16 13:59:16;;;;;;;4.50;3.93;;;;;;;;;;5005122;28;20795;-50
2023/06/16 14:01:42;;;;;;;9.10;4.03;;;;;;;;;;5001996;28;20423;-50
2023/06/16 14:04:08;;;;;;;4.23;3.80;;;;;;;;;;5004556;28;20191;-51
2023/06/16 14:06:34;;;;;;;4.10;3.80;;;;;;;;;;5003194;28;20458;-51
2023/06/16 14:09:00;;;;;;;4.90;3.40;;;;;;;;;;5003241;28;20172;-52
2023/06/16 14:11:26;;;;;;;5.43;4.50;;;;;;;;;;5005002;28;20517;-51
2023/06/16 14:13:52;;;;;;;4.00;3.73;;;;;;;;;;5004727;28;20501;-49
2023/06/16 14:16:18;;;;;;;4.50;4.10;;;;;;;;;;5003610;28;20418;-50
2023/06/16 14:18:44;;;;;;;5.10;4.57;;;;;;;;;;5000018;28;20474;-50
2023/06/16 14:21:10;;;;;;;4.10;3.40;;;;;;;;;;5002097;28;20503;-50
2023/06/16 14:23:36;;;;;;;6.53;4.07;;;;;;;;;;5002878;28;20423;-50
2023/06/16 14:26:02;;;;;;;3.73;3.43;;;;;;;;;;5006192;28;20458;-50
2023/06/16 14:28:28;;;;;;;5.17;4.57;;;;;;;;;;5004698;28;20786;-52
2023/06/16 14:30:54;;;;;;;4.33;4.00;;;;;;;;;;5005967;28;20418;-51
2023/06/16 14:33:20;;;;;;;4.87;4.47;;;;;;;;;;5002271;28;20407;-48
2023/06/16 14:35:46;;;;;;;4.20;4.00;;;;;;;;;;4997925;28;20443;-51
2023/06/16 14:38:13;;;;;;;9.30;4.30;;;;;;;;;;5006166;28;20779;-52
2023/06/16 14:40:39;;;;;;;6.33;4.30;;;;;;;;;;5001366;28;20412;-53